sensor_id;sensor_type;location;lat;lon;timestamp;P1;durP1;ratioP1;P2;durP2;ratioP2
38693;SDS011;24447;43.460;25.744;2024-02-26T00:02:04;10.25;;;3.78;;
38693;SDS011;24447;43.460;25.744;2024-02-26T00:04:30;7.10;;;2.85;;
38693;SDS011;24447;43.460;25.744;2024-02-26T00:06:56;5.60;;;3.58;;
38693;SDS011;24447;43.460;25.744;2024-02-26T00:09:23;13.73;;;4.03;;
38693;SDS011;24447;43.460;25.744;2024-02-26T00:11:49;10.27;;;3.25;;
38693;SDS011;24447;43.460;25.744;2024-02-26T00:14:14;8.55;;;3.90;;
38693;SDS011;24447;43.460;25.744;2024-02-26T00:16:40;11.75;;;3.83;;
38693;SDS011;24447;43.460;25.744;2024-02-26T00:19:07;6.32;;;3.63;;
38693;SDS011;24447;43.460;25.744;2024-02-26T00:21:33;18.40;;;3.97;;
38693;SDS011;24447;43.460;25.744;2024-02-26T00:23:58;8.77;;;4.05;;
38693;SDS011;24447;43.460;25.744;2024-02-26T00:26:24;12.43;;;4.68;;
38693;SDS011;24447;43.460;25.744;2024-02-26T00:28:50;5.53;;;2.90;;
38693;SDS011;24447;43.460;25.744;2024-02-26T00:31:16;10.43;;;3.45;;
38693;SDS011;24447;43.460;25.744;2024-02-26T00:33:42;15.23;;;5.15;;
38693;SDS011;24447;43.460;25.744;2024-02-26T00:36:08;10.07;;;4.18;;
38693;SDS011;24447;43.460;25.744;2024-02-26T00:38:35;9.20;;;4.05;;
38693;SDS011;24447;43.460;25.744;2024-02-26T00:41:01;9.85;;;3.58;;
38693;SDS011;24447;43.460;25.744;2024-02-26T00:43:27;8.40;;;3.17;;
38693;SDS011;24447;43.460;25.744;2024-02-26T00:45:52;9.52;;;3.58;;
38693;SDS011;24447;43.460;25.744;2024-02-26T00:48:18;10.18;;;4.18;;
38693;SDS011;24447;43.460;25.744;2024-02-26T00:50:44;14.25;;;4.22;;
38693;SDS011;24447;43.460;25.744;2024-02-26T00:53:10;8.60;;;3.50;;
38693;SDS011;24447;43.460;25.744;2024-02-26T00:55:36;7.32;;;2.92;;
38693;SDS011;24447;43.460;25.744;2024-02-26T00:58:02;8.82;;;3.80;;
38693;SDS011;24447;43.460;25.744;2024-02-26T01:00:28;9.93;;;3.75;;
38693;SDS011;24447;43.460;25.744;2024-02-26T01:02:53;6.88;;;3.00;;
38693;SDS011;24447;43.460;25.744;2024-02-26T01:05:19;4.47;;;2.55;;
38693;SDS011;24447;43.460;25.744;2024-02-26T01:07:45;8.32;;;3.72;;
38693;SDS011;24447;43.460;25.744;2024-02-26T01:10:11;8.63;;;3.03;;
38693;SDS011;24447;43.460;25.744;2024-02-26T01:12:37;10.57;;;4.10;;
38693;SDS011;24447;43.460;25.744;2024-02-26T01:15:03;9.07;;;3.42;;
38693;SDS011;24447;43.460;25.744;2024-02-26T01:17:29;4.57;;;3.05;;
38693;SDS011;24447;43.460;25.744;2024-02-26T01:19:55;7.95;;;3.33;;
38693;SDS011;24447;43.460;25.744;2024-02-26T01:22:21;7.45;;;3.33;;
38693;SDS011;24447;43.460;25.744;2024-02-26T01:24:47;11.48;;;3.97;;
38693;SDS011;24447;43.460;25.744;2024-02-26T01:27:13;9.25;;;2.88;;
38693;SDS011;24447;43.460;25.744;2024-02-26T01:29:40;14.80;;;4.78;;
38693;SDS011;24447;43.460;25.744;2024-02-26T01:32:07;7.40;;;3.13;;
38693;SDS011;24447;43.460;25.744;2024-02-26T01:34:33;8.40;;;3.15;;
38693;SDS011;24447;43.460;25.744;2024-02-26T01:36:59;10.85;;;3.58;;
38693;SDS011;24447;43.460;25.744;2024-02-26T01:39:25;7.55;;;2.72;;
38693;SDS011;24447;43.460;25.744;2024-02-26T01:41:54;6.63;;;2.95;;
38693;SDS011;24447;43.460;25.744;2024-02-26T01:44:20;4.30;;;2.50;;
38693;SDS011;24447;43.460;25.744;2024-02-26T01:46:46;8.05;;;3.25;;
38693;SDS011;24447;43.460;25.744;2024-02-26T01:49:12;5.68;;;3.08;;
38693;SDS011;24447;43.460;25.744;2024-02-26T01:51:38;6.07;;;3.05;;
38693;SDS011;24447;43.460;25.744;2024-02-26T01:54:05;7.63;;;3.58;;
38693;SDS011;24447;43.460;25.744;2024-02-26T01:56:32;11.05;;;4.13;;
38693;SDS011;24447;43.460;25.744;2024-02-26T01:58:58;6.25;;;3.05;;
38693;SDS011;24447;43.460;25.744;2024-02-26T02:01:27;13.48;;;3.20;;
38693;SDS011;24447;43.460;25.744;2024-02-26T02:03:58;8.77;;;3.35;;
38693;SDS011;24447;43.460;25.744;2024-02-26T02:06:25;12.88;;;3.78;;
38693;SDS011;24447;43.460;25.744;2024-02-26T02:08:54;6.05;;;2.65;;
38693;SDS011;24447;43.460;25.744;2024-02-26T02:11:20;10.95;;;3.70;;
38693;SDS011;24447;43.460;25.744;2024-02-26T02:13:46;39.47;;;12.48;;
38693;SDS011;24447;43.460;25.744;2024-02-26T02:16:12;35.60;;;12.60;;
38693;SDS011;24447;43.460;25.744;2024-02-26T02:18:38;29.77;;;12.73;;
38693;SDS011;24447;43.460;25.744;2024-02-26T02:21:04;12.98;;;6.53;;
38693;SDS011;24447;43.460;25.744;2024-02-26T02:23:33;20.88;;;7.85;;
38693;SDS011;24447;43.460;25.744;2024-02-26T02:25:59;20.15;;;8.18;;
38693;SDS011;24447;43.460;25.744;2024-02-26T02:28:25;12.43;;;4.50;;
38693;SDS011;24447;43.460;25.744;2024-02-26T02:30:51;8.30;;;3.65;;
38693;SDS011;24447;43.460;25.744;2024-02-26T02:33:17;9.32;;;5.07;;
38693;SDS011;24447;43.460;25.744;2024-02-26T02:35:43;8.18;;;3.50;;
38693;SDS011;24447;43.460;25.744;2024-02-26T02:38:09;12.38;;;4.07;;
38693;SDS011;24447;43.460;25.744;2024-02-26T02:40:35;9.30;;;3.30;;
38693;SDS011;24447;43.460;25.744;2024-02-26T02:43:01;12.68;;;4.20;;
38693;SDS011;24447;43.460;25.744;2024-02-26T02:45:28;5.55;;;2.70;;
38693;SDS011;24447;43.460;25.744;2024-02-26T02:47:54;4.53;;;2.45;;
38693;SDS011;24447;43.460;25.744;2024-02-26T02:50:20;5.63;;;2.22;;
38693;SDS011;24447;43.460;25.744;2024-02-26T02:52:46;8.15;;;3.58;;
38693;SDS011;24447;43.460;25.744;2024-02-26T02:55:13;8.95;;;3.67;;
38693;SDS011;24447;43.460;25.744;2024-02-26T02:57:39;7.55;;;3.05;;
38693;SDS011;24447;43.460;25.744;2024-02-26T03:00:09;6.78;;;2.90;;
38693;SDS011;24447;43.460;25.744;2024-02-26T03:02:35;5.88;;;2.92;;
38693;SDS011;24447;43.460;25.744;2024-02-26T03:05:05;4.85;;;2.33;;
38693;SDS011;24447;43.460;25.744;2024-02-26T03:07:31;13.80;;;3.60;;
38693;SDS011;24447;43.460;25.744;2024-02-26T03:09:57;7.53;;;3.45;;
38693;SDS011;24447;43.460;25.744;2024-02-26T03:12:23;12.55;;;4.13;;
38693;SDS011;24447;43.460;25.744;2024-02-26T03:14:49;11.88;;;3.80;;
38693;SDS011;24447;43.460;25.744;2024-02-26T03:17:15;7.70;;;2.80;;
38693;SDS011;24447;43.460;25.744;2024-02-26T03:19:41;6.55;;;2.63;;
38693;SDS011;24447;43.460;25.744;2024-02-26T03:22:07;5.90;;;2.58;;
38693;SDS011;24447;43.460;25.744;2024-02-26T03:24:32;7.70;;;4.00;;
38693;SDS011;24447;43.460;25.744;2024-02-26T03:26:58;9.27;;;3.42;;
38693;SDS011;24447;43.460;25.744;2024-02-26T03:29:24;6.50;;;2.10;;
38693;SDS011;24447;43.460;25.744;2024-02-26T03:31:50;5.63;;;2.55;;
38693;SDS011;24447;43.460;25.744;2024-02-26T03:34:16;6.00;;;2.78;;
38693;SDS011;24447;43.460;25.744;2024-02-26T03:36:43;13.57;;;3.33;;
38693;SDS011;24447;43.460;25.744;2024-02-26T03:39:10;5.47;;;2.83;;
38693;SDS011;24447;43.460;25.744;2024-02-26T03:41:36;8.27;;;2.60;;
38693;SDS011;24447;43.460;25.744;2024-02-26T03:44:02;7.53;;;2.35;;
38693;SDS011;24447;43.460;25.744;2024-02-26T03:46:28;5.75;;;2.47;;
38693;SDS011;24447;43.460;25.744;2024-02-26T03:48:54;4.05;;;1.85;;
38693;SDS011;24447;43.460;25.744;2024-02-26T03:51:20;7.75;;;2.70;;
38693;SDS011;24447;43.460;25.744;2024-02-26T03:53:46;7.30;;;3.85;;
38693;SDS011;24447;43.460;25.744;2024-02-26T03:56:12;3.35;;;2.17;;
38693;SDS011;24447;43.460;25.744;2024-02-26T03:58:41;6.07;;;2.40;;
38693;SDS011;24447;43.460;25.744;2024-02-26T04:01:07;2.58;;;1.80;;
38693;SDS011;24447;43.460;25.744;2024-02-26T04:03:34;4.80;;;2.60;;
38693;SDS011;24447;43.460;25.744;2024-02-26T04:06:00;7.53;;;3.03;;
38693;SDS011;24447;43.460;25.744;2024-02-26T04:08:26;5.13;;;2.55;;
38693;SDS011;24447;43.460;25.744;2024-02-26T04:10:52;6.03;;;2.42;;
38693;SDS011;24447;43.460;25.744;2024-02-26T04:13:18;7.82;;;3.25;;
38693;SDS011;24447;43.460;25.744;2024-02-26T04:15:43;6.15;;;2.72;;
38693;SDS011;24447;43.460;25.744;2024-02-26T04:18:11;8.18;;;2.92;;
38693;SDS011;24447;43.460;25.744;2024-02-26T04:20:37;6.05;;;2.40;;
38693;SDS011;24447;43.460;25.744;2024-02-26T04:23:03;11.95;;;3.38;;
38693;SDS011;24447;43.460;25.744;2024-02-26T04:25:29;8.23;;;2.83;;
38693;SDS011;24447;43.460;25.744;2024-02-26T04:27:55;8.32;;;3.30;;
38693;SDS011;24447;43.460;25.744;2024-02-26T04:30:21;9.15;;;2.85;;
38693;SDS011;24447;43.460;25.744;2024-02-26T04:32:47;5.20;;;2.75;;
38693;SDS011;24447;43.460;25.744;2024-02-26T04:35:13;5.63;;;2.72;;
38693;SDS011;24447;43.460;25.744;2024-02-26T04:37:38;12.18;;;3.20;;
38693;SDS011;24447;43.460;25.744;2024-02-26T04:40:05;8.43;;;2.53;;
38693;SDS011;24447;43.460;25.744;2024-02-26T04:42:33;8.90;;;3.53;;
38693;SDS011;24447;43.460;25.744;2024-02-26T04:44:58;4.63;;;2.63;;
38693;SDS011;24447;43.460;25.744;2024-02-26T04:47:24;16.27;;;4.32;;
38693;SDS011;24447;43.460;25.744;2024-02-26T04:49:50;5.65;;;2.60;;
38693;SDS011;24447;43.460;25.744;2024-02-26T04:52:17;6.78;;;3.42;;
38693;SDS011;24447;43.460;25.744;2024-02-26T04:54:44;8.88;;;2.47;;
38693;SDS011;24447;43.460;25.744;2024-02-26T04:57:10;5.22;;;2.50;;
38693;SDS011;24447;43.460;25.744;2024-02-26T04:59:35;9.75;;;2.92;;
38693;SDS011;24447;43.460;25.744;2024-02-26T05:02:01;7.13;;;3.25;;
38693;SDS011;24447;43.460;25.744;2024-02-26T05:04:28;9.63;;;4.15;;
38693;SDS011;24447;43.460;25.744;2024-02-26T05:06:54;11.10;;;4.10;;
38693;SDS011;24447;43.460;25.744;2024-02-26T05:09:20;13.57;;;6.28;;
38693;SDS011;24447;43.460;25.744;2024-02-26T05:11:46;5.15;;;3.17;;
38693;SDS011;24447;43.460;25.744;2024-02-26T05:14:12;6.03;;;2.97;;
38693;SDS011;24447;43.460;25.744;2024-02-26T05:16:37;5.00;;;2.50;;
38693;SDS011;24447;43.460;25.744;2024-02-26T05:19:03;5.30;;;2.47;;
38693;SDS011;24447;43.460;25.744;2024-02-26T05:21:30;7.63;;;3.05;;
38693;SDS011;24447;43.460;25.744;2024-02-26T05:23:56;12.25;;;3.60;;
38693;SDS011;24447;43.460;25.744;2024-02-26T05:26:22;6.65;;;3.40;;
38693;SDS011;24447;43.460;25.744;2024-02-26T05:28:48;11.05;;;3.90;;
38693;SDS011;24447;43.460;25.744;2024-02-26T05:31:15;24.95;;;6.20;;
38693;SDS011;24447;43.460;25.744;2024-02-26T05:33:41;16.80;;;5.85;;
38693;SDS011;24447;43.460;25.744;2024-02-26T05:36:07;15.38;;;5.88;;
38693;SDS011;24447;43.460;25.744;2024-02-26T05:38:33;13.27;;;4.97;;
38693;SDS011;24447;43.460;25.744;2024-02-26T05:40:59;14.55;;;4.70;;
38693;SDS011;24447;43.460;25.744;2024-02-26T05:43:25;9.48;;;4.05;;
38693;SDS011;24447;43.460;25.744;2024-02-26T05:45:52;16.30;;;5.80;;
38693;SDS011;24447;43.460;25.744;2024-02-26T05:48:18;16.05;;;4.55;;
38693;SDS011;24447;43.460;25.744;2024-02-26T05:50:47;7.60;;;3.83;;
38693;SDS011;24447;43.460;25.744;2024-02-26T05:53:13;19.67;;;5.28;;
38693;SDS011;24447;43.460;25.744;2024-02-26T05:55:39;5.95;;;2.58;;
38693;SDS011;24447;43.460;25.744;2024-02-26T05:58:05;7.50;;;2.88;;
38693;SDS011;24447;43.460;25.744;2024-02-26T06:00:31;10.23;;;3.70;;
38693;SDS011;24447;43.460;25.744;2024-02-26T06:02:57;6.05;;;2.53;;
38693;SDS011;24447;43.460;25.744;2024-02-26T06:05:23;6.65;;;3.00;;
38693;SDS011;24447;43.460;25.744;2024-02-26T06:07:48;18.73;;;7.60;;
38693;SDS011;24447;43.460;25.744;2024-02-26T06:10:15;16.48;;;7.40;;
38693;SDS011;24447;43.460;25.744;2024-02-26T06:12:41;24.98;;;9.45;;
38693;SDS011;24447;43.460;25.744;2024-02-26T06:15:07;90.15;;;32.28;;
38693;SDS011;24447;43.460;25.744;2024-02-26T06:17:34;76.30;;;28.85;;
38693;SDS011;24447;43.460;25.744;2024-02-26T06:20:00;40.45;;;16.02;;
38693;SDS011;24447;43.460;25.744;2024-02-26T06:22:26;28.10;;;9.23;;
38693;SDS011;24447;43.460;25.744;2024-02-26T06:24:52;25.95;;;9.70;;
38693;SDS011;24447;43.460;25.744;2024-02-26T06:27:18;32.78;;;9.95;;
38693;SDS011;24447;43.460;25.744;2024-02-26T06:29:46;20.73;;;6.38;;
38693;SDS011;24447;43.460;25.744;2024-02-26T06:32:12;24.85;;;6.30;;
38693;SDS011;24447;43.460;25.744;2024-02-26T06:34:38;18.80;;;5.07;;
38693;SDS011;24447;43.460;25.744;2024-02-26T06:37:05;13.93;;;5.22;;
38693;SDS011;24447;43.460;25.744;2024-02-26T06:39:31;16.15;;;5.68;;
38693;SDS011;24447;43.460;25.744;2024-02-26T06:41:57;12.98;;;4.10;;
38693;SDS011;24447;43.460;25.744;2024-02-26T06:44:26;13.48;;;5.30;;
38693;SDS011;24447;43.460;25.744;2024-02-26T06:46:57;14.85;;;5.68;;
38693;SDS011;24447;43.460;25.744;2024-02-26T06:49:25;13.27;;;5.35;;
38693;SDS011;24447;43.460;25.744;2024-02-26T06:51:52;17.77;;;5.53;;
38693;SDS011;24447;43.460;25.744;2024-02-26T06:54:18;13.77;;;4.80;;
38693;SDS011;24447;43.460;25.744;2024-02-26T06:56:44;14.75;;;4.55;;
38693;SDS011;24447;43.460;25.744;2024-02-26T06:59:10;13.77;;;4.30;;
38693;SDS011;24447;43.460;25.744;2024-02-26T07:01:35;18.00;;;5.43;;
38693;SDS011;24447;43.460;25.744;2024-02-26T07:04:01;14.98;;;4.70;;
38693;SDS011;24447;43.460;25.744;2024-02-26T07:06:27;21.95;;;5.65;;
38693;SDS011;24447;43.460;25.744;2024-02-26T07:08:53;17.10;;;5.43;;
38693;SDS011;24447;43.460;25.744;2024-02-26T07:11:19;12.35;;;4.85;;
38693;SDS011;24447;43.460;25.744;2024-02-26T07:13:46;12.20;;;4.97;;
38693;SDS011;24447;43.460;25.744;2024-02-26T07:16:12;12.07;;;4.95;;
38693;SDS011;24447;43.460;25.744;2024-02-26T07:18:41;12.73;;;4.95;;
38693;SDS011;24447;43.460;25.744;2024-02-26T07:21:11;33.47;;;9.57;;
38693;SDS011;24447;43.460;25.744;2024-02-26T07:23:37;31.10;;;9.55;;
38693;SDS011;24447;43.460;25.744;2024-02-26T07:26:03;30.60;;;11.02;;
38693;SDS011;24447;43.460;25.744;2024-02-26T07:28:29;29.48;;;11.45;;
38693;SDS011;24447;43.460;25.744;2024-02-26T07:30:55;29.95;;;11.93;;
38693;SDS011;24447;43.460;25.744;2024-02-26T07:33:21;50.47;;;16.25;;
38693;SDS011;24447;43.460;25.744;2024-02-26T07:35:47;56.13;;;12.95;;
38693;SDS011;24447;43.460;25.744;2024-02-26T07:38:13;21.58;;;7.00;;
38693;SDS011;24447;43.460;25.744;2024-02-26T07:40:39;14.63;;;5.15;;
38693;SDS011;24447;43.460;25.744;2024-02-26T07:43:05;10.30;;;4.25;;
38693;SDS011;24447;43.460;25.744;2024-02-26T07:45:31;8.68;;;2.25;;
38693;SDS011;24447;43.460;25.744;2024-02-26T07:47:57;4.88;;;1.58;;
38693;SDS011;24447;43.460;25.744;2024-02-26T07:50:23;8.02;;;2.85;;
38693;SDS011;24447;43.460;25.744;2024-02-26T07:52:48;3.78;;;1.20;;
38693;SDS011;24447;43.460;25.744;2024-02-26T07:55:16;4.78;;;1.90;;
38693;SDS011;24447;43.460;25.744;2024-02-26T07:57:42;5.95;;;2.33;;
38693;SDS011;24447;43.460;25.744;2024-02-26T08:00:09;6.43;;;2.05;;
38693;SDS011;24447;43.460;25.744;2024-02-26T08:02:35;6.60;;;2.40;;
38693;SDS011;24447;43.460;25.744;2024-02-26T08:05:02;7.43;;;3.00;;
38693;SDS011;24447;43.460;25.744;2024-02-26T08:07:28;3.97;;;2.15;;
38693;SDS011;24447;43.460;25.744;2024-02-26T08:09:54;8.23;;;2.85;;
38693;SDS011;24447;43.460;25.744;2024-02-26T08:12:20;7.63;;;3.13;;
38693;SDS011;24447;43.460;25.744;2024-02-26T08:14:46;5.47;;;2.17;;
38693;SDS011;24447;43.460;25.744;2024-02-26T08:17:11;6.65;;;2.08;;
38693;SDS011;24447;43.460;25.744;2024-02-26T08:19:37;4.03;;;1.77;;
38693;SDS011;24447;43.460;25.744;2024-02-26T08:22:03;2.97;;;1.85;;
38693;SDS011;24447;43.460;25.744;2024-02-26T08:24:29;7.25;;;2.65;;
38693;SDS011;24447;43.460;25.744;2024-02-26T08:26:55;7.50;;;2.55;;
38693;SDS011;24447;43.460;25.744;2024-02-26T08:29:21;9.20;;;2.72;;
38693;SDS011;24447;43.460;25.744;2024-02-26T08:31:47;7.28;;;2.92;;
38693;SDS011;24447;43.460;25.744;2024-02-26T08:34:13;18.30;;;2.72;;
38693;SDS011;24447;43.460;25.744;2024-02-26T08:36:39;3.45;;;2.15;;
38693;SDS011;24447;43.460;25.744;2024-02-26T08:39:05;4.43;;;2.30;;
38693;SDS011;24447;43.460;25.744;2024-02-26T08:41:33;6.85;;;2.30;;
38693;SDS011;24447;43.460;25.744;2024-02-26T08:43:59;4.30;;;1.92;;
38693;SDS011;24447;43.460;25.744;2024-02-26T08:46:25;2.33;;;2.13;;
38693;SDS011;24447;43.460;25.744;2024-02-26T08:48:51;4.78;;;2.15;;
38693;SDS011;24447;43.460;25.744;2024-02-26T08:51:17;7.65;;;1.92;;
38693;SDS011;24447;43.460;25.744;2024-02-26T08:53:43;3.75;;;1.75;;
38693;SDS011;24447;43.460;25.744;2024-02-26T08:56:09;6.25;;;2.50;;
38693;SDS011;24447;43.460;25.744;2024-02-26T08:58:41;5.40;;;1.60;;
38693;SDS011;24447;43.460;25.744;2024-02-26T09:01:07;5.95;;;2.55;;
38693;SDS011;24447;43.460;25.744;2024-02-26T09:03:33;3.25;;;1.73;;
38693;SDS011;24447;43.460;25.744;2024-02-26T09:05:59;4.05;;;1.73;;
38693;SDS011;24447;43.460;25.744;2024-02-26T09:08:25;4.45;;;2.30;;
38693;SDS011;24447;43.460;25.744;2024-02-26T09:10:51;5.05;;;2.22;;
38693;SDS011;24447;43.460;25.744;2024-02-26T09:13:18;4.40;;;2.00;;
38693;SDS011;24447;43.460;25.744;2024-02-26T09:15:44;7.22;;;2.60;;
38693;SDS011;24447;43.460;25.744;2024-02-26T09:18:10;5.22;;;1.98;;
38693;SDS011;24447;43.460;25.744;2024-02-26T09:20:36;3.85;;;2.45;;
38693;SDS011;24447;43.460;25.744;2024-02-26T09:23:01;6.38;;;2.33;;
38693;SDS011;24447;43.460;25.744;2024-02-26T09:25:28;5.85;;;2.42;;
38693;SDS011;24447;43.460;25.744;2024-02-26T09:27:54;2.95;;;1.98;;
38693;SDS011;24447;43.460;25.744;2024-02-26T09:30:20;5.40;;;2.63;;
38693;SDS011;24447;43.460;25.744;2024-02-26T09:32:46;2.47;;;1.85;;
38693;SDS011;24447;43.460;25.744;2024-02-26T09:35:16;3.63;;;1.77;;
38693;SDS011;24447;43.460;25.744;2024-02-26T09:37:42;5.82;;;1.88;;
38693;SDS011;24447;43.460;25.744;2024-02-26T09:40:09;5.38;;;2.13;;
38693;SDS011;24447;43.460;25.744;2024-02-26T09:42:41;4.72;;;1.77;;
38693;SDS011;24447;43.460;25.744;2024-02-26T09:45:10;3.75;;;2.58;;
38693;SDS011;24447;43.460;25.744;2024-02-26T09:47:38;1.33;;;1.23;;
38693;SDS011;24447;43.460;25.744;2024-02-26T09:50:05;2.65;;;1.73;;
38693;SDS011;24447;43.460;25.744;2024-02-26T09:52:34;3.90;;;1.63;;
38693;SDS011;24447;43.460;25.744;2024-02-26T09:55:00;4.55;;;1.70;;
38693;SDS011;24447;43.460;25.744;2024-02-26T09:57:26;2.28;;;1.23;;
38693;SDS011;24447;43.460;25.744;2024-02-26T09:59:53;2.28;;;1.77;;
38693;SDS011;24447;43.460;25.744;2024-02-26T10:02:19;4.90;;;1.55;;
38693;SDS011;24447;43.460;25.744;2024-02-26T10:04:46;6.15;;;2.30;;
38693;SDS011;24447;43.460;25.744;2024-02-26T10:07:14;2.58;;;1.60;;
38693;SDS011;24447;43.460;25.744;2024-02-26T10:09:42;6.95;;;2.10;;
38693;SDS011;24447;43.460;25.744;2024-02-26T10:12:09;7.70;;;2.22;;
38693;SDS011;24447;43.460;25.744;2024-02-26T10:14:37;5.07;;;2.00;;
38693;SDS011;24447;43.460;25.744;2024-02-26T10:17:03;4.60;;;1.40;;
38693;SDS011;24447;43.460;25.744;2024-02-26T10:19:33;2.25;;;2.05;;
38693;SDS011;24447;43.460;25.744;2024-02-26T10:22:00;1.42;;;1.23;;
38693;SDS011;24447;43.460;25.744;2024-02-26T10:24:27;6.18;;;2.60;;
38693;SDS011;24447;43.460;25.744;2024-02-26T10:26:55;5.50;;;1.45;;
38693;SDS011;24447;43.460;25.744;2024-02-26T10:29:23;5.63;;;1.25;;
38693;SDS011;24447;43.460;25.744;2024-02-26T10:31:50;3.00;;;1.90;;
38693;SDS011;24447;43.460;25.744;2024-02-26T10:34:17;3.65;;;1.05;;
38693;SDS011;24447;43.460;25.744;2024-02-26T10:36:43;5.68;;;1.83;;
38693;SDS011;24447;43.460;25.744;2024-02-26T10:39:11;2.50;;;1.67;;
38693;SDS011;24447;43.460;25.744;2024-02-26T10:41:42;5.45;;;1.58;;
38693;SDS011;24447;43.460;25.744;2024-02-26T10:44:11;1.67;;;1.45;;
38693;SDS011;24447;43.460;25.744;2024-02-26T10:46:38;2.25;;;1.60;;
38693;SDS011;24447;43.460;25.744;2024-02-26T10:49:10;2.60;;;1.75;;
38693;SDS011;24447;43.460;25.744;2024-02-26T10:51:39;5.50;;;1.08;;
38693;SDS011;24447;43.460;25.744;2024-02-26T10:54:09;3.53;;;1.38;;
38693;SDS011;24447;43.460;25.744;2024-02-26T10:56:38;3.90;;;1.70;;
38693;SDS011;24447;43.460;25.744;2024-02-26T10:59:09;6.20;;;2.63;;
38693;SDS011;24447;43.460;25.744;2024-02-26T11:01:37;2.30;;;1.45;;
38693;SDS011;24447;43.460;25.744;2024-02-26T11:04:06;5.13;;;1.08;;
38693;SDS011;24447;43.460;25.744;2024-02-26T11:06:32;3.80;;;1.40;;
38693;SDS011;24447;43.460;25.744;2024-02-26T11:08:59;3.88;;;1.60;;
38693;SDS011;24447;43.460;25.744;2024-02-26T11:11:27;5.53;;;2.40;;
38693;SDS011;24447;43.460;25.744;2024-02-26T11:13:53;3.22;;;1.30;;
38693;SDS011;24447;43.460;25.744;2024-02-26T11:16:21;2.15;;;1.20;;
38693;SDS011;24447;43.460;25.744;2024-02-26T11:18:47;4.55;;;1.63;;
38693;SDS011;24447;43.460;25.744;2024-02-26T11:21:17;5.60;;;1.67;;
38693;SDS011;24447;43.460;25.744;2024-02-26T11:23:45;1.60;;;1.08;;
38693;SDS011;24447;43.460;25.744;2024-02-26T11:26:11;1.75;;;1.30;;
38693;SDS011;24447;43.460;25.744;2024-02-26T11:28:39;5.43;;;2.05;;
38693;SDS011;24447;43.460;25.744;2024-02-26T11:31:05;6.85;;;2.42;;
38693;SDS011;24447;43.460;25.744;2024-02-26T11:33:32;8.48;;;1.88;;
38693;SDS011;24447;43.460;25.744;2024-02-26T11:36:00;1.52;;;1.00;;
38693;SDS011;24447;43.460;25.744;2024-02-26T11:38:27;4.90;;;1.52;;
38693;SDS011;24447;43.460;25.744;2024-02-26T11:40:53;8.35;;;1.95;;
38693;SDS011;24447;43.460;25.744;2024-02-26T11:43:23;2.47;;;1.00;;
38693;SDS011;24447;43.460;25.744;2024-02-26T11:49:03;1.55;;;1.45;;
38693;SDS011;24447;43.460;25.744;2024-02-26T11:51:51;3.63;;;1.33;;
38693;SDS011;24447;43.460;25.744;2024-02-26T12:00:10;1.70;;;1.23;;
38693;SDS011;24447;43.460;25.744;2024-02-26T12:02:47;4.93;;;1.67;;
38693;SDS011;24447;43.460;25.744;2024-02-26T12:05:22;4.82;;;1.73;;
38693;SDS011;24447;43.460;25.744;2024-02-26T12:07:50;2.92;;;1.63;;
38693;SDS011;24447;43.460;25.744;2024-02-26T12:15:36;3.28;;;1.52;;
38693;SDS011;24447;43.460;25.744;2024-02-26T12:18:04;4.10;;;2.22;;
38693;SDS011;24447;43.460;25.744;2024-02-26T12:20:31;3.00;;;1.73;;
38693;SDS011;24447;43.460;25.744;2024-02-26T12:22:57;2.25;;;1.42;;
38693;SDS011;24447;43.460;25.744;2024-02-26T12:25:24;10.88;;;3.15;;
38693;SDS011;24447;43.460;25.744;2024-02-26T12:27:52;3.15;;;1.27;;
38693;SDS011;24447;43.460;25.744;2024-02-26T12:30:18;2.13;;;1.35;;
38693;SDS011;24447;43.460;25.744;2024-02-26T12:32:45;3.38;;;2.20;;
38693;SDS011;24447;43.460;25.744;2024-02-26T12:35:14;0.93;;;0.90;;
38693;SDS011;24447;43.460;25.744;2024-02-26T12:37:41;3.30;;;1.70;;
38693;SDS011;24447;43.460;25.744;2024-02-26T12:40:11;6.88;;;2.05;;
38693;SDS011;24447;43.460;25.744;2024-02-26T12:42:40;3.05;;;1.83;;
38693;SDS011;24447;43.460;25.744;2024-02-26T12:45:06;4.20;;;1.30;;
38693;SDS011;24447;43.460;25.744;2024-02-26T12:47:39;2.75;;;1.60;;
38693;SDS011;24447;43.460;25.744;2024-02-26T12:50:08;1.67;;;1.08;;
38693;SDS011;24447;43.460;25.744;2024-02-26T12:52:35;1.85;;;1.02;;
38693;SDS011;24447;43.460;25.744;2024-02-26T12:55:02;5.10;;;1.70;;
38693;SDS011;24447;43.460;25.744;2024-02-26T12:57:29;5.15;;;1.63;;
38693;SDS011;24447;43.460;25.744;2024-02-26T12:59:57;4.45;;;2.08;;
38693;SDS011;24447;43.460;25.744;2024-02-26T13:02:23;2.95;;;1.55;;
38693;SDS011;24447;43.460;25.744;2024-02-26T13:04:50;7.30;;;2.15;;
38693;SDS011;24447;43.460;25.744;2024-02-26T13:07:16;1.83;;;1.58;;
38693;SDS011;24447;43.460;25.744;2024-02-26T13:09:41;2.72;;;1.55;;
38693;SDS011;24447;43.460;25.744;2024-02-26T13:12:08;4.68;;;1.73;;
38693;SDS011;24447;43.460;25.744;2024-02-26T13:14:34;3.78;;;2.15;;
38693;SDS011;24447;43.460;25.744;2024-02-26T13:17:00;1.55;;;1.10;;
38693;SDS011;24447;43.460;25.744;2024-02-26T13:19:27;2.88;;;1.58;;
38693;SDS011;24447;43.460;25.744;2024-02-26T13:21:53;1.38;;;1.27;;
38693;SDS011;24447;43.460;25.744;2024-02-26T13:24:20;2.00;;;1.15;;
38693;SDS011;24447;43.460;25.744;2024-02-26T13:26:47;1.85;;;1.23;;
38693;SDS011;24447;43.460;25.744;2024-02-26T13:29:19;2.90;;;1.35;;
38693;SDS011;24447;43.460;25.744;2024-02-26T13:31:45;2.95;;;1.25;;
38693;SDS011;24447;43.460;25.744;2024-02-26T13:34:11;9.70;;;3.95;;
38693;SDS011;24447;43.460;25.744;2024-02-26T13:36:49;6.25;;;3.08;;
38693;SDS011;24447;43.460;25.744;2024-02-26T13:39:21;12.05;;;4.35;;
38693;SDS011;24447;43.460;25.744;2024-02-26T13:41:51;11.38;;;3.38;;
38693;SDS011;24447;43.460;25.744;2024-02-26T13:44:17;20.65;;;5.45;;
38693;SDS011;24447;43.460;25.744;2024-02-26T13:46:44;11.32;;;2.75;;
38693;SDS011;24447;43.460;25.744;2024-02-26T13:49:10;4.47;;;1.73;;
38693;SDS011;24447;43.460;25.744;2024-02-26T13:51:36;6.03;;;1.83;;
38693;SDS011;24447;43.460;25.744;2024-02-26T13:54:03;4.18;;;2.03;;
38693;SDS011;24447;43.460;25.744;2024-02-26T13:56:29;4.10;;;2.15;;
38693;SDS011;24447;43.460;25.744;2024-02-26T13:58:55;7.00;;;3.08;;
38693;SDS011;24447;43.460;25.744;2024-02-26T14:01:21;3.72;;;1.83;;
38693;SDS011;24447;43.460;25.744;2024-02-26T14:03:47;4.75;;;1.70;;
38693;SDS011;24447;43.460;25.744;2024-02-26T14:06:13;9.55;;;3.28;;
38693;SDS011;24447;43.460;25.744;2024-02-26T14:08:39;5.90;;;2.08;;
38693;SDS011;24447;43.460;25.744;2024-02-26T14:11:05;4.13;;;2.25;;
38693;SDS011;24447;43.460;25.744;2024-02-26T14:13:31;6.25;;;2.88;;
38693;SDS011;24447;43.460;25.744;2024-02-26T14:15:57;3.70;;;2.00;;
38693;SDS011;24447;43.460;25.744;2024-02-26T14:18:23;4.03;;;1.83;;
38693;SDS011;24447;43.460;25.744;2024-02-26T14:20:49;5.78;;;2.65;;
38693;SDS011;24447;43.460;25.744;2024-02-26T14:23:16;12.43;;;3.00;;
38693;SDS011;24447;43.460;25.744;2024-02-26T14:25:42;7.00;;;2.53;;
38693;SDS011;24447;43.460;25.744;2024-02-26T14:28:08;5.80;;;2.28;;
38693;SDS011;24447;43.460;25.744;2024-02-26T14:30:34;10.10;;;2.95;;
38693;SDS011;24447;43.460;25.744;2024-02-26T14:33:00;8.20;;;2.17;;
38693;SDS011;24447;43.460;25.744;2024-02-26T14:35:26;11.48;;;3.22;;
38693;SDS011;24447;43.460;25.744;2024-02-26T14:37:52;8.07;;;3.20;;
38693;SDS011;24447;43.460;25.744;2024-02-26T14:40:19;9.18;;;2.30;;
38693;SDS011;24447;43.460;25.744;2024-02-26T14:42:45;16.48;;;5.43;;